Terminal Aerodrome Forecast
Issued by NWS

Home | Current Version | Previous Version | Text Only | Print | Product List | Glossary On
Versions: 1 2 3 4 5 6 7 8 9 10 11 12
574
FTUS46 KSEW 291735
TAFHQM
TAF
KHQM 291735Z 2918/3018 28010KT P6SM SCT015 BKN025 OVC035
     FM292200 28014KT P6SM SCT025 BKN035 BKN050
     FM300500 29010KT P6SM SCT050
     FM301000 29006KT P6SM BKN015
      AMD NOT SKED=

USA.gov is the U.S. government's official web portal to all federal, state and local government web resources and services.